createdAt,value
2017-07-30T15:05:59.267Z,992.0
2017-07-30T15:11:00.565Z,992.1
2017-07-30T15:16:21.501Z,992.1
2017-07-30T15:21:22.811Z,992.1
2017-07-30T15:26:44.924Z,992.1
2017-07-30T15:31:46.239Z,992.1
2017-07-30T15:37:07.183Z,992.2
2017-07-30T15:42:09.080Z,992.2
2017-07-30T15:47:41.130Z,992.2
2017-07-30T15:52:42.452Z,992.3
2017-07-30T15:58:04.675Z,992.2
2017-07-30T16:03:05.993Z,992.2
2017-07-30T16:08:26.946Z,992.3
2017-07-30T16:13:28.265Z,992.3
2017-07-30T16:18:49.210Z,992.3
2017-07-30T16:23:50.978Z,992.3
2017-07-30T16:29:11.925Z,992.2
2017-07-30T16:34:15.102Z,992.3
2017-07-30T16:39:36.046Z,992.3
2017-07-30T16:44:37.366Z,992.4
2017-07-30T16:49:58.310Z,992.4
2017-07-30T16:54:59.630Z,992.4
2017-07-30T17:00:20.803Z,992.4
2017-07-30T17:05:22.563Z,992.5
2017-07-30T17:10:43.505Z,992.5
2017-07-30T17:15:46.538Z,992.5
2017-07-30T17:21:07.497Z,992.5
2017-07-30T17:26:08.969Z,992.6
2017-07-30T17:31:30.944Z,992.7
2017-07-30T17:36:32.293Z,992.7
2017-07-30T17:41:53.283Z,992.6
2017-07-30T17:46:54.777Z,992.6
2017-07-30T17:52:16.031Z,992.6
2017-07-30T17:57:17.574Z,992.5
2017-07-30T18:02:38.551Z,992.5
2017-07-30T18:07:39.871Z,992.5
2017-07-30T18:13:00.814Z,992.6
2017-07-30T18:18:02.136Z,992.6
2017-07-30T18:23:23.078Z,992.6
2017-07-30T18:28:24.396Z,992.7
2017-07-30T18:33:45.340Z,992.7
2017-07-30T18:38:47.331Z,992.7
2017-07-30T18:44:08.241Z,992.6
2017-07-30T18:49:09.558Z,992.7
2017-07-30T18:54:30.505Z,992.9
2017-07-30T18:59:31.823Z,993.0
2017-07-30T19:04:52.782Z,993.3
2017-07-30T19:09:54.103Z,993.5
2017-07-30T19:15:15.545Z,993.5
2017-07-30T19:20:16.876Z,993.7
2017-07-30T19:25:37.803Z,993.7
2017-07-30T19:30:39.121Z,993.8
2017-07-30T19:36:00.064Z,993.8
2017-07-30T19:40:56.916Z,993.9
